Time;durP1;ratioP1;P1;durP2;ratioP2;P2;SDS_P1;SDS_P2;PMS_P1;PMS_P2;Temp;Humidity;BMP_temperature;BMP_pressure;BME280_temperature;BME280_humidity;BME280_pressure;Samples;Min_cycle;Max_cycle;Signal;HPM_P1;HPM_P2
2023/01/15 00:01:51;;;;;;;;;3.00;2.00;;;;;3.99;69.74;97955.34;4973361;28;102358;-73
2023/01/15 00:04:18;;;;;;;;;5.25;3.00;;;;;4.06;69.20;97950.94;4978029;28;102590;-74
2023/01/15 00:06:45;;;;;;;;;4.50;2.75;;;;;4.11;68.97;97940.53;4962190;28;102553;-73
2023/01/15 00:09:15;;;;;;;;;5.75;5.50;;;;;4.18;69.60;97935.34;4968902;28;105258;-74
2023/01/15 00:11:42;;;;;;;;;5.00;5.00;;;;;4.22;68.57;97926.78;4978117;28;102888;-74
2023/01/15 00:14:09;;;;;;;;;2.75;2.00;;;;;4.28;68.51;97915.34;4982168;28;102346;-73
2023/01/15 00:16:39;;;;;;;;;3.00;3.00;;;;;4.34;67.45;97919.16;4966515;28;102335;-73
2023/01/15 00:19:09;;;;;;;;;5.00;3.50;;;;;4.40;67.69;97910.44;4963973;28;103997;-75
2023/01/15 00:21:36;;;;;;;;;4.00;2.00;;;;;4.45;67.30;97906.22;4965002;28;102787;-75
2023/01/15 00:29:35;;;;;;;;;5.50;3.00;;;;;4.49;67.42;97886.09;4969630;28;108673;-75
2023/01/15 00:32:05;;;;;;;;;2.50;2.50;;;;;4.48;67.23;97880.91;4963616;28;102222;-75
2023/01/15 00:34:33;;;;;;;;;6.00;5.75;;;;;4.45;66.61;97884.78;4960401;28;102343;-74
2023/01/15 00:37:01;;;;;;;;;6.75;5.75;;;;;4.44;67.20;97877.78;4966269;28;102005;-74
2023/01/15 00:39:28;;;;;;;;;3.00;3.00;;;;;4.47;66.41;97865.84;4967758;28;104830;-73
2023/01/15 00:41:55;;;;;;;;;3.25;2.50;;;;;4.48;66.06;97859.50;4970374;28;102516;-73
2023/01/15 00:44:23;;;;;;;;;7.25;5.25;;;;;4.57;65.40;97877.16;4967774;28;102480;-73
2023/01/15 00:46:50;;;;;;;;;3.00;2.75;;;;;4.63;65.05;97871.09;4969807;28;102403;-73
2023/01/15 00:49:17;;;;;;;;;3.00;2.00;;;;;4.66;65.38;97875.22;4970129;28;104038;-73
2023/01/15 00:51:44;;;;;;;;;2.25;1.75;;;;;4.73;65.09;97884.19;4956001;28;102508;-73
2023/01/15 00:54:11;;;;;;;;;2.50;1.25;;;;;4.78;65.83;97887.16;4963063;28;102591;-73
2023/01/15 00:56:37;;;;;;;;;1.00;1.00;;;;;4.82;64.70;97877.75;4969573;28;103379;-73
2023/01/15 00:59:05;;;;;;;;;3.00;2.25;;;;;4.86;64.72;97861.13;4968843;28;104002;-73
2023/01/15 01:01:32;;;;;;;;;2.00;2.00;;;;;4.88;65.16;97852.91;4971768;28;102261;-73
2023/01/15 01:04:00;;;;;;;;;3.00;2.50;;;;;4.91;65.09;97857.91;4963025;28;103340;-73
2023/01/15 01:06:27;;;;;;;;;2.00;2.00;;;;;4.93;65.15;97850.53;4961870;28;102647;-73
2023/01/15 01:08:55;;;;;;;;;3.25;1.00;;;;;4.90;64.84;97829.47;4968106;28;104046;-73
2023/01/15 01:11:25;;;;;;;;;2.75;2.00;;;;;4.99;64.70;97836.41;4978118;28;102145;-73
2023/01/15 01:13:54;;;;;;;;;1.00;1.00;;;;;5.05;64.95;97832.97;4965514;28;102467;-73
2023/01/15 01:16:34;;;;;;;;;1.00;1.00;;;;;5.08;65.04;97832.63;4956925;28;102138;-73
2023/01/15 01:19:03;;;;;;;;;2.75;2.25;;;;;5.12;64.30;97817.81;4966465;28;110409;-74
2023/01/15 01:21:31;;;;;;;;;1.00;1.00;;;;;5.17;63.88;97825.31;4969238;28;102294;-74
2023/01/15 01:23:59;;;;;;;;;1.75;1.00;;;;;5.22;63.10;97815.66;4968126;28;102038;-74
2023/01/15 01:26:27;;;;;;;;;2.00;1.00;;;;;5.27;62.95;97821.31;4962148;28;102385;-74
2023/01/15 01:28:56;;;;;;;;;2.75;2.00;;;;;5.33;63.84;97819.72;4966157;28;103972;-73
2023/01/15 01:31:23;;;;;;;;;1.00;1.00;;;;;5.35;63.30;97821.22;4965265;28;101918;-73
2023/01/15 01:33:53;;;;;;;;;1.25;1.25;;;;;5.40;62.86;97810.75;4959145;28;102364;-72
2023/01/15 01:36:26;;;;;;;;;2.00;2.00;;;;;5.47;62.34;97807.31;4970241;28;102142;-73
2023/01/15 01:38:53;;;;;;;;;2.00;2.00;;;;;5.48;62.63;97800.94;4961699;28;104186;-72
2023/01/15 01:41:20;;;;;;;;;2.50;2.00;;;;;5.50;62.60;97801.56;4961011;28;102181;-73
2023/01/15 01:44:26;;;;;;;;;3.50;2.00;;;;;5.50;62.54;97804.25;4946107;28;103511;-73
2023/01/15 01:46:54;;;;;;;;;2.25;2.25;;;;;5.49;62.75;97798.09;4967363;28;110595;-72
2023/01/15 01:49:22;;;;;;;;;1.25;0.75;;;;;5.46;62.57;97790.41;4963832;28;104210;-72
2023/01/15 01:51:54;;;;;;;;;1.50;1.00;;;;;5.44;63.10;97795.13;4962634;28;102355;-72
2023/01/15 01:54:25;;;;;;;;;1.00;1.00;;;;;5.38;62.73;97780.63;4962848;28;102258;-73
2023/01/15 01:56:53;;;;;;;;;1.75;1.00;;;;;5.39;62.74;97784.97;4963251;28;101864;-73
2023/01/15 01:59:22;;;;;;;;;0.50;0.50;;;;;5.37;62.77;97775.44;4958634;28;104460;-73
2023/01/15 02:01:49;;;;;;;;;0.00;0.00;;;;;5.35;63.47;97778.34;4952523;28;102085;-73
2023/01/15 02:04:20;;;;;;;;;1.00;1.00;;;;;5.28;63.16;97785.44;4965719;28;102017;-74
2023/01/15 02:06:47;;;;;;;;;1.25;1.00;;;;;5.28;63.77;97789.97;4966098;28;102445;-73
2023/01/15 02:09:22;;;;;;;;;3.00;2.00;;;;;5.22;64.21;97775.47;4959228;28;104406;-73
2023/01/15 02:12:35;;;;;;;;;2.00;1.00;;;;;5.11;63.82;97773.28;4952670;28;102447;-73
2023/01/15 02:15:50;;;;;;;;;1.75;1.00;;;;;5.07;64.13;97768.50;4944897;28;102065;-73
2023/01/15 02:19:06;;;;;;;;;2.00;1.00;;;;;4.98;64.87;97750.84;4963362;28;102494;-73
2023/01/15 02:22:19;;;;;;;;;1.00;1.00;;;;;4.98;64.95;97766.94;4958111;28;107468;-74
2023/01/15 02:25:47;;;;;;;;;1.00;1.00;;;;;4.99;65.26;97756.03;4970494;28;102331;-74
2023/01/15 02:28:41;;;;;;;;;1.25;1.00;;;;;4.98;64.86;97743.66;4962652;28;102441;-74
2023/01/15 02:31:23;;;;;;;;;1.00;1.00;;;;;5.01;64.90;97745.13;4957081;28;102593;-74
2023/01/15 02:34:26;;;;;;;;;2.00;1.00;;;;;5.06;64.94;97753.44;4957171;28;104667;-74
2023/01/15 02:37:02;;;;;;;;;1.00;1.00;;;;;5.17;64.25;97750.28;4957573;28;102355;-74
2023/01/15 02:39:33;;;;;;;;;1.25;1.00;;;;;5.23;63.97;97750.34;4951569;28;102471;-73
2023/01/15 02:42:02;;;;;;;;;3.00;2.00;;;;;5.32;63.79;97716.22;4959464;28;102470;-71
2023/01/15 02:44:32;;;;;;;;;1.50;1.50;;;;;5.49;63.01;97732.91;4965734;28;108641;-72
2023/01/15 02:47:03;;;;;;;;;1.00;1.00;;;;;5.63;62.10;97721.31;4960382;28;102329;-73
2023/01/15 02:49:31;;;;;;;;;2.00;2.00;;;;;5.72;62.05;97722.81;4968244;28;102998;-73
2023/01/15 02:52:15;;;;;;;;;1.00;1.00;;;;;5.75;63.21;97711.72;4972291;28;102374;-73
2023/01/15 02:54:49;;;;;;;;;2.00;1.00;;;;;5.80;62.80;97715.50;4964068;28;108389;-73
2023/01/15 02:57:18;;;;;;;;;3.00;2.50;;;;;5.73;62.86;97705.69;4956413;28;102969;-72
2023/01/15 02:59:49;;;;;;;;;1.25;1.25;;;;;5.85;61.78;97722.97;4959444;28;102198;-74
2023/01/15 03:02:32;;;;;;;;;4.50;2.25;;;;;5.90;61.93;97714.38;4967485;28;102927;-74
2023/01/15 03:05:01;;;;;;;;;3.00;2.00;;;;;5.92;61.94;97717.66;4967461;28;108845;-74
2023/01/15 03:07:39;;;;;;;;;2.00;2.00;;;;;5.94;62.83;97721.84;4967380;28;102427;-73
2023/01/15 03:10:07;;;;;;;;;3.00;3.00;;;;;5.80;61.59;97688.66;4959754;28;102914;-73
2023/01/15 03:13:01;;;;;;;;;2.00;1.00;;;;;6.05;62.05;97718.59;4976623;28;102559;-73
2023/01/15 03:18:34;;;;;;;;;4.25;2.75;;;;;6.18;61.42;97707.13;4962896;28;102511;-72
2023/01/15 03:21:07;;;;;;;;;1.25;1.25;;;;;6.17;61.82;97711.69;4962054;28;102000;-73
2023/01/15 03:23:38;;;;;;;;;1.00;1.00;;;;;6.10;61.73;97689.34;4968439;28;102029;-72
2023/01/15 03:26:05;;;;;;;;;1.50;1.00;;;;;6.13;61.77;97705.03;4971247;28;104180;-72
2023/01/15 03:28:36;;;;;;;;;2.00;2.00;;;;;6.08;61.96;97699.44;4972263;28;102360;-72
2023/01/15 03:31:04;;;;;;;;;1.75;1.00;;;;;6.08;61.92;97693.25;4961730;28;104203;-73
2023/01/15 03:33:33;;;;;;;;;1.00;1.00;;;;;6.07;62.18;97697.78;4975519;28;102099;-72
2023/01/15 03:36:01;;;;;;;;;1.00;1.00;;;;;6.06;62.36;97688.06;4964245;28;108488;-72
2023/01/15 03:38:39;;;;;;;;;2.25;1.00;;;;;6.06;62.66;97677.34;4981477;28;102227;-72
2023/01/15 03:41:11;;;;;;;;;2.00;1.00;;;;;6.05;62.86;97675.69;4972181;28;102100;-73
2023/01/15 03:44:09;;;;;;;;;1.75;1.00;;;;;6.12;62.71;97681.09;4967635;28;102079;-73
2023/01/15 03:46:58;;;;;;;;;2.00;1.00;;;;;6.13;63.03;97675.53;4963674;28;108997;-73
2023/01/15 03:49:53;;;;;;;;;1.00;1.00;;;;;6.12;62.78;97665.00;4963199;28;102322;-73
2023/01/15 03:52:38;;;;;;;;;1.00;0.00;;;;;6.11;63.38;97658.81;4973937;28;102293;-73
2023/01/15 03:55:05;;;;;;;;;1.00;1.00;;;;;6.13;63.45;97664.78;4970581;28;102296;-73
2023/01/15 03:58:04;;;;;;;;;2.25;1.25;;;;;6.16;63.42;97666.25;4964245;28;103959;-73
2023/01/15 04:00:52;;;;;;;;;1.25;1.00;;;;;6.18;63.90;97662.34;4958672;28;102013;-73
2023/01/15 04:03:22;;;;;;;;;1.25;1.00;;;;;6.18;63.75;97653.47;4950552;28;103925;-74
2023/01/15 04:05:52;;;;;;;;;1.00;1.00;;;;;6.22;64.03;97658.25;4976684;28;102506;-73
2023/01/15 04:08:20;;;;;;;;;1.00;1.00;;;;;6.26;64.23;97643.41;4972899;28;106601;-74
2023/01/15 04:10:55;;;;;;;;;0.00;0.00;;;;;6.33;64.57;97639.94;4970196;28;102368;-73
2023/01/15 04:13:23;;;;;;;;;1.75;1.75;;;;;6.34;65.19;97626.31;4963092;28;102520;-73
2023/01/15 04:15:50;;;;;;;;;2.75;2.00;;;;;6.41;64.86;97615.59;4965015;28;102393;-74
2023/01/15 04:18:18;;;;;;;;;1.25;0.25;;;;;6.50;65.03;97622.47;4965436;28;104007;-73
2023/01/15 04:20:45;;;;;;;;;2.75;1.75;;;;;6.55;64.79;97612.78;4965603;28;102869;-74
2023/01/15 04:23:13;;;;;;;;;1.00;1.00;;;;;6.63;64.92;97626.03;4969551;28;102256;-73
2023/01/15 04:25:40;;;;;;;;;2.00;0.50;;;;;6.71;64.92;97611.59;4967249;28;102255;-71
2023/01/15 04:28:08;;;;;;;;;0.00;0.00;;;;;6.74;65.36;97613.91;4966258;28;103851;-71
2023/01/15 04:30:36;;;;;;;;;1.00;0.75;;;;;6.79;64.30;97608.75;4964193;28;102331;-72
2023/01/15 04:33:03;;;;;;;;;0.25;0.00;;;;;6.84;64.75;97617.06;4965330;28;101977;-72
2023/01/15 04:35:30;;;;;;;;;1.75;1.75;;;;;6.87;63.80;97619.31;4964454;28;102467;-73
2023/01/15 04:37:59;;;;;;;;;4.00;1.00;;;;;6.93;63.76;97618.53;4968433;28;103982;-73
2023/01/15 04:45:59;;;;;;;;;1.00;1.00;;;;;7.00;63.96;97614.00;4966097;28;102191;-73
2023/01/15 04:48:26;;;;;;;;;3.25;1.00;;;;;7.02;63.85;97606.56;4943076;28;104171;-73
2023/01/15 04:50:53;;;;;;;;;1.00;1.00;;;;;7.04;63.89;97601.78;4967759;28;102236;-73
2023/01/15 04:53:20;;;;;;;;;3.75;2.25;;;;;7.05;63.43;97597.25;4969095;28;103750;-73
2023/01/15 04:55:47;;;;;;;;;0.50;0.50;;;;;7.05;63.17;97586.50;4970972;28;102231;-73
2023/01/15 04:58:14;;;;;;;;;2.00;1.00;;;;;7.06;62.55;97594.38;4969797;28;104366;-73
2023/01/15 05:00:41;;;;;;;;;6.00;4.00;;;;;7.06;62.43;97585.47;4970361;28;102519;-74
2023/01/15 05:03:08;;;;;;;;;5.00;3.00;;;;;7.10;62.80;97586.72;4971746;28;102413;-74
2023/01/15 05:05:35;;;;;;;;;3.25;2.00;;;;;7.10;62.25;97582.19;4981891;28;102517;-73
2023/01/15 05:08:02;;;;;;;;;2.75;2.00;;;;;7.10;62.67;97579.50;4968261;28;105925;-73
2023/01/15 05:10:29;;;;;;;;;3.25;3.00;;;;;7.11;62.47;97577.63;4966840;28;102374;-73
2023/01/15 05:12:56;;;;;;;;;3.00;2.00;;;;;7.06;61.99;97572.88;4963135;28;102427;-74
2023/01/15 05:15:23;;;;;;;;;3.50;2.50;;;;;7.10;62.43;97567.91;4961476;28;102210;-74
2023/01/15 05:17:50;;;;;;;;;2.00;1.75;;;;;7.10;62.48;97584.88;4966161;28;104014;-73
2023/01/15 05:20:17;;;;;;;;;1.00;1.00;;;;;7.11;62.21;97580.31;4965140;28;102783;-73
2023/01/15 05:22:44;;;;;;;;;1.00;1.00;;;;;7.06;61.85;97570.19;4969313;28;102382;-73
2023/01/15 05:25:11;;;;;;;;;1.50;1.50;;;;;7.06;62.39;97566.66;4963934;28;102499;-73
2023/01/15 05:27:38;;;;;;;;;1.00;1.00;;;;;7.03;62.35;97562.50;4970063;28;104007;-74
2023/01/15 05:30:05;;;;;;;;;0.00;0.00;;;;;6.99;62.77;97558.56;4977019;28;102011;-74
2023/01/15 05:32:32;;;;;;;;;1.50;0.25;;;;;6.96;63.02;97548.25;4970961;28;101997;-74
2023/01/15 05:34:59;;;;;;;;;1.50;0.25;;;;;6.76;62.89;97525.03;4965238;28;102361;-73
2023/01/15 05:37:29;;;;;;;;;0.25;0.25;;;;;6.91;62.09;97548.03;4961272;28;104267;-74
2023/01/15 05:39:56;;;;;;;;;1.75;0.75;;;;;6.84;62.38;97532.94;4955167;28;102226;-74
2023/01/15 05:42:23;;;;;;;;;1.00;1.00;;;;;6.88;62.03;97559.19;4951742;28;102290;-74
2023/01/15 05:44:50;;;;;;;;;0.00;0.00;;;;;6.81;62.58;97539.53;4967612;28;102277;-72
2023/01/15 05:47:17;;;;;;;;;1.00;1.00;;;;;6.86;62.78;97547.81;4961437;28;104008;-72
2023/01/15 05:49:44;;;;;;;;;0.00;0.00;;;;;6.76;62.59;97525.88;4958250;28;104019;-74
2023/01/15 05:52:12;;;;;;;;;1.00;0.00;;;;;6.86;62.61;97542.44;4972984;28;102184;-72
2023/01/15 05:54:39;;;;;;;;;0.25;0.00;;;;;6.86;62.98;97545.13;4965822;28;102520;-72
2023/01/15 05:57:10;;;;;;;;;0.00;0.00;;;;;6.82;62.66;97541.19;4959427;28;104323;-73
2023/01/15 05:59:38;;;;;;;;;0.00;0.00;;;;;6.81;62.99;97536.84;4969412;28;102328;-73
2023/01/15 06:02:05;;;;;;;;;2.00;1.00;;;;;6.77;63.21;97534.75;4966743;28;104082;-73
2023/01/15 06:04:32;;;;;;;;;0.00;0.00;;;;;6.77;62.57;97538.28;4969451;28;103020;-73
2023/01/15 06:06:59;;;;;;;;;0.00;0.00;;;;;6.62;62.09;97511.56;4970079;28;103994;-73
2023/01/15 06:09:26;;;;;;;;;1.00;1.00;;;;;6.71;62.52;97541.75;4967249;28;103986;-73
2023/01/15 06:11:55;;;;;;;;;1.50;1.00;;;;;6.69;62.41;97535.78;4968517;28;104801;-73
2023/01/15 06:14:22;;;;;;;;;5.50;2.00;;;;;6.69;62.52;97522.34;4957501;28;102642;-73
2023/01/15 06:16:51;;;;;;;;;3.00;2.00;;;;;6.69;61.94;97541.97;4958523;28;104314;-73
2023/01/15 06:19:18;;;;;;;;;1.25;1.00;;;;;6.69;63.04;97527.72;4960606;28;101931;-73
2023/01/15 06:21:45;;;;;;;;;2.50;2.25;;;;;6.71;61.81;97539.91;4959870;28;102081;-73
2023/01/15 06:24:15;;;;;;;;;3.00;3.00;;;;;6.75;61.47;97537.66;4970835;28;101926;-73
2023/01/15 06:26:42;;;;;;;;;3.25;3.25;;;;;6.73;61.20;97537.03;4973994;28;104094;-73
2023/01/15 06:29:09;;;;;;;;;1.25;1.25;;;;;6.72;61.65;97538.03;4970550;28;102814;-73
2023/01/15 06:31:36;;;;;;;;;0.75;0.50;;;;;6.71;61.65;97547.13;4959549;28;102112;-73
2023/01/15 06:34:03;;;;;;;;;4.25;2.75;;;;;6.68;61.75;97547.53;4976028;28;102426;-74
2023/01/15 06:36:30;;;;;;;;;4.00;2.25;;;;;6.68;61.65;97536.81;4962350;28;103990;-74
2023/01/15 06:38:57;;;;;;;;;5.50;2.75;;;;;6.66;61.59;97538.88;4976387;28;102531;-73
2023/01/15 06:47:21;;;;;;;;;1.00;1.00;;;;;6.59;62.14;97532.63;4972998;28;104051;-74
2023/01/15 06:49:54;;;;;;;;;2.00;1.00;;;;;6.56;61.92;97522.31;4975899;28;102360;-73
2023/01/15 06:52:23;;;;;;;;;1.00;1.00;;;;;6.56;61.86;97525.00;4975764;28;102788;-73
2023/01/15 06:54:51;;;;;;;;;1.75;1.25;;;;;6.50;61.18;97533.84;4973997;28;102343;-73
2023/01/15 06:57:17;;;;;;;;;1.25;1.25;;;;;6.49;62.00;97522.28;4971308;28;103984;-73
2023/01/15 06:59:45;;;;;;;;;1.00;0.75;;;;;6.44;61.58;97513.19;4971617;28;103909;-74
2023/01/15 07:02:13;;;;;;;;;1.00;1.00;;;;;6.48;61.37;97523.34;4959970;28;102815;-73
2023/01/15 07:04:40;;;;;;;;;1.50;1.00;;;;;6.53;61.48;97526.22;4972478;28;103010;-73
2023/01/15 07:07:06;;;;;;;;;2.00;2.00;;;;;6.45;60.98;97507.59;4967730;28;103991;-73
2023/01/15 07:09:34;;;;;;;;;1.00;1.00;;;;;6.53;61.16;97528.91;4967952;28;102331;-74
2023/01/15 07:12:00;;;;;;;;;1.50;1.00;;;;;6.57;62.03;97521.28;4970443;28;102551;-74
2023/01/15 07:14:28;;;;;;;;;0.75;0.25;;;;;6.57;61.35;97522.13;4970279;28;102200;-74
2023/01/15 07:16:55;;;;;;;;;2.75;1.00;;;;;6.57;61.61;97529.34;4956087;28;104047;-74
2023/01/15 07:19:21;;;;;;;;;1.00;1.00;;;;;6.58;60.85;97529.13;4966821;28;102697;-74
2023/01/15 07:21:48;;;;;;;;;1.75;1.00;;;;;6.61;61.39;97533.28;4961798;28;102587;-74
2023/01/15 07:24:16;;;;;;;;;2.00;0.00;;;;;6.70;61.26;97553.56;4964737;28;102185;-73
2023/01/15 07:26:44;;;;;;;;;1.00;0.25;;;;;6.74;61.09;97541.38;4964906;27;103942;-73
2023/01/15 07:29:12;;;;;;;;;1.50;1.00;;;;;6.81;59.54;97533.31;4964386;28;103685;-73
2023/01/15 07:31:39;;;;;;;;;2.50;1.75;;;;;6.87;59.40;97546.78;4948148;28;102373;-73
2023/01/15 07:34:06;;;;;;;;;2.00;2.00;;;;;6.92;61.11;97538.94;4972705;28;102090;-73
2023/01/15 07:36:33;;;;;;;;;1.75;1.75;;;;;7.04;59.54;97545.34;4967462;28;103968;-73
2023/01/15 07:39:03;;;;;;;;;2.00;2.00;;;;;7.13;59.34;97536.06;4971770;28;102511;-72
2023/01/15 07:49:49;;;;;;;;;6.00;4.00;;;;;7.32;58.29;97537.13;4949611;28;103102;-73
2023/01/15 07:52:19;;;;;;;;;7.25;5.25;;;;;7.33;57.61;97529.88;4972146;28;102381;-73
2023/01/15 07:54:48;;;;;;;;;8.00;7.25;;;;;7.35;57.38;97533.16;4960934;28;103996;-73
2023/01/15 07:57:20;;;;;;;;;3.75;3.00;;;;;7.36;56.63;97524.06;4964494;28;103929;-74
2023/01/15 07:59:48;;;;;;;;;11.00;7.00;;;;;7.34;56.36;97518.91;4968128;28;102287;-74
2023/01/15 08:02:16;;;;;;;;;11.25;7.75;;;;;7.29;57.41;97507.13;4968872;28;101991;-75
2023/01/15 08:04:44;;;;;;;;;6.50;4.00;;;;;7.20;56.61;97492.25;4975063;28;102149;-74
2023/01/15 08:07:11;;;;;;;;;7.25;6.00;;;;;7.38;56.25;97511.28;4957685;28;104011;-73
2023/01/15 08:09:38;;;;;;;;;8.00;7.00;;;;;7.41;57.09;97511.66;4956579;28;102423;-73
2023/01/15 08:17:39;;;;;;;;;3.75;3.00;;;;;7.49;56.39;97502.56;4963069;28;108916;-72
2023/01/15 08:20:11;;;;;;;;;5.50;4.00;;;;;7.47;57.13;97510.84;4954947;27;102198;-72
2023/01/15 08:22:39;;;;;;;;;6.25;6.00;;;;;7.45;57.07;97512.06;4961797;28;102244;-73
2023/01/15 08:25:08;;;;;;;;;5.25;5.25;;;;;7.47;56.72;97521.59;4970616;28;102120;-72
2023/01/15 08:27:36;;;;;;;;;6.00;3.00;;;;;7.45;56.73;97514.78;4962013;28;104047;-73
2023/01/15 08:30:12;;;;;;;;;6.75;6.00;;;;;7.43;56.24;97530.31;4971731;28;104146;-73
2023/01/15 08:32:40;;;;;;;;;7.00;6.00;;;;;7.42;56.66;97531.31;4966662;28;102420;-73
2023/01/15 08:35:08;;;;;;;;;5.50;4.50;;;;;7.40;56.92;97536.06;4963603;28;102595;-73
2023/01/15 08:37:35;;;;;;;;;5.50;4.00;;;;;7.32;56.23;97522.84;4960678;28;104029;-73
2023/01/15 08:40:03;;;;;;;;;6.75;6.00;;;;;7.37;56.22;97525.75;4964316;28;103163;-73
2023/01/15 08:42:30;;;;;;;;;6.75;6.75;;;;;7.39;56.31;97531.72;4968287;28;103421;-72
2023/01/15 08:44:57;;;;;;;;;7.25;6.25;;;;;7.41;56.39;97530.50;4957723;28;102230;-72
2023/01/15 08:47:24;;;;;;;;;10.75;7.25;;;;;7.44;55.91;97526.56;4965642;28;103938;-72
2023/01/15 08:49:51;;;;;;;;;4.25;3.00;;;;;7.45;56.60;97530.91;4968054;28;102357;-73
2023/01/15 08:52:18;;;;;;;;;8.00;6.00;;;;;7.47;56.61;97515.41;4972504;28;102198;-74
2023/01/15 08:54:45;;;;;;;;;7.75;6.25;;;;;7.46;56.38;97524.50;4946021;28;102318;-72
2023/01/15 08:57:12;;;;;;;;;4.00;4.00;;;;;7.49;56.38;97514.16;4960969;28;104026;-72
2023/01/15 08:59:42;;;;;;;;;5.25;3.75;;;;;7.43;55.88;97495.34;4974655;28;102555;-73
2023/01/15 09:02:14;;;;;;;;;5.25;4.75;;;;;7.53;55.49;97509.16;4948519;28;102015;-73
2023/01/15 09:04:41;;;;;;;;;3.75;2.75;;;;;7.56;56.05;97511.47;4969127;28;102002;-73
2023/01/15 09:07:09;;;;;;;;;9.00;6.00;;;;;7.54;55.66;97484.75;4971969;28;104007;-73
2023/01/15 09:09:36;;;;;;;;;4.00;4.00;;;;;7.67;54.90;97504.59;4970568;28;102163;-73
2023/01/15 09:12:03;;;;;;;;;3.00;3.00;;;;;7.66;55.12;97517.22;4969842;28;102066;-72
2023/01/15 09:14:30;;;;;;;;;6.00;3.00;;;;;7.70;55.37;97496.94;4970769;28;102199;-72
2023/01/15 09:17:17;;;;;;;;;5.25;4.00;;;;;7.75;56.19;97497.13;4965325;28;108983;-72
2023/01/15 09:19:45;;;;;;;;;5.25;2.00;;;;;7.78;55.59;97483.28;4963999;28;102273;-73
2023/01/15 09:22:12;;;;;;;;;2.25;2.00;;;;;7.82;54.90;97486.38;4962364;28;102283;-72
2023/01/15 09:24:39;;;;;;;;;3.00;3.00;;;;;7.81;55.73;97474.78;4973062;28;103015;-74
2023/01/15 09:27:06;;;;;;;;;3.00;2.00;;;;;7.85;55.38;97480.56;4961200;28;109017;-73
2023/01/15 09:29:33;;;;;;;;;6.75;3.25;;;;;7.86;55.47;97479.53;4968375;28;102148;-74
2023/01/15 09:32:01;;;;;;;;;3.75;3.00;;;;;7.85;55.51;97476.00;4970205;28;102498;-74
2023/01/15 09:34:28;;;;;;;;;5.00;4.00;;;;;7.85;55.24;97472.47;4964628;28;102355;-74
2023/01/15 09:36:55;;;;;;;;;6.00;2.75;;;;;7.87;54.30;97478.50;4963000;28;103250;-74
2023/01/15 09:39:22;;;;;;;;;4.00;2.75;;;;;7.90;54.98;97478.06;4971074;28;102281;-73
2023/01/15 09:42:12;;;;;;;;;3.00;2.50;;;;;7.95;53.86;97479.09;4969250;28;102124;-74
2023/01/15 09:45:17;;;;;;;;;3.50;2.00;;;;;7.99;54.18;97485.69;4963240;28;102235;-74
2023/01/15 09:48:07;;;;;;;;;3.00;2.50;;;;;8.00;53.53;97481.97;4958908;28;108187;-73
2023/01/15 09:50:52;;;;;;;;;2.00;2.00;;;;;8.00;53.33;97478.44;4962690;28;102327;-73
2023/01/15 09:53:39;;;;;;;;;7.00;3.00;;;;;8.05;53.56;97470.56;4968634;28;102044;-75
2023/01/15 09:56:18;;;;;;;;;4.00;3.00;;;;;8.07;53.61;97472.00;4973236;28;104388;-73
2023/01/15 09:58:45;;;;;;;;;3.00;1.25;;;;;8.10;53.33;97467.22;4961144;28;108549;-74
2023/01/15 10:01:19;;;;;;;;;3.00;2.00;;;;;8.16;53.67;97455.59;4969918;28;102247;-73
2023/01/15 10:04:15;;;;;;;;;2.00;2.00;;;;;8.22;55.42;97457.44;4953950;28;105157;-74
2023/01/15 10:06:55;;;;;;;;;1.25;1.25;;;;;8.14;55.45;97463.06;4968277;28;102109;-73
2023/01/15 10:09:36;;;;;;;;;2.50;1.75;;;;;8.07;56.12;97442.38;4964984;28;104569;-76
2023/01/15 10:12:34;;;;;;;;;2.50;2.50;;;;;7.97;56.84;97444.69;4958250;28;102376;-75
2023/01/15 10:15:22;;;;;;;;;3.00;2.25;;;;;7.88;58.26;97443.28;4964891;28;102096;-73
2023/01/15 10:17:52;;;;;;;;;3.25;2.00;;;;;7.87;59.79;97443.50;4950796;28;102552;-74
2023/01/15 10:20:48;;;;;;;;;2.50;2.00;;;;;7.79;59.25;97439.16;4956976;28;103925;-74
2023/01/15 10:23:21;;;;;;;;;2.00;1.00;;;;;7.72;58.22;97432.16;4960573;28;102503;-76
2023/01/15 10:25:53;;;;;;;;;3.00;2.00;;;;;7.69;58.90;97440.66;4968194;28;102248;-73
2023/01/15 10:28:42;;;;;;;;;2.00;1.00;;;;;7.63;57.26;97428.88;4976612;28;101980;-75
2023/01/15 10:31:18;;;;;;;;;2.00;1.00;;;;;7.62;57.87;97421.84;4963947;28;108534;-75
2023/01/15 10:34:07;;;;;;;;;2.50;2.00;;;;;7.61;58.37;97414.78;4963001;28;102317;-76
2023/01/15 10:36:44;;;;;;;;;2.00;2.00;;;;;7.58;58.04;97413.38;4960461;28;102044;-75
2023/01/15 10:39:50;;;;;;;;;1.75;1.25;;;;;7.57;57.22;97416.25;4967852;28;104538;-75
2023/01/15 10:42:29;;;;;;;;;2.00;1.25;;;;;7.58;57.30;97417.91;4902035;28;108482;-74
2023/01/15 10:45:17;;;;;;;;;2.00;1.00;;;;;7.55;56.75;97400.34;4958352;28;102239;-75
2023/01/15 10:47:51;;;;;;;;;2.00;1.50;;;;;7.56;59.35;97398.50;4955609;28;102752;-76
2023/01/15 10:50:21;;;;;;;;;2.00;1.00;;;;;7.53;59.99;97404.28;4953240;28;102338;-76
2023/01/15 10:53:10;;;;;;;;;2.00;2.00;;;;;7.52;57.99;97400.75;4958622;28;103989;-75
2023/01/15 10:55:44;;;;;;;;;1.00;1.00;;;;;7.49;60.24;97393.13;4963658;28;102168;-76
2023/01/15 10:58:33;;;;;;;;;1.50;1.50;;;;;7.46;61.24;97384.66;4962667;28;102033;-73
2023/01/15 11:01:05;;;;;;;;;2.00;1.75;;;;;7.40;61.90;97390.84;4963273;28;102239;-75
2023/01/15 11:03:41;;;;;;;;;2.00;2.00;;;;;7.34;61.17;97383.66;4957989;28;104174;-75
2023/01/15 11:06:20;;;;;;;;;2.75;2.00;;;;;7.32;63.00;97377.66;4959642;28;102604;-76
2023/01/15 11:08:53;;;;;;;;;4.25;3.00;;;;;7.24;62.75;97364.44;4961199;28;102205;-75
2023/01/15 11:20:33;;;;;;;;;2.00;1.50;;;;;7.13;65.57;97342.53;4970596;28;101907;-74
2023/01/15 11:23:14;;;;;;;;;1.00;1.00;;;;;7.11;66.69;97341.91;4969829;28;102354;-76
2023/01/15 11:25:53;;;;;;;;;2.50;1.00;;;;;7.09;67.10;97333.25;4973738;28;108517;-75
2023/01/15 11:28:42;;;;;;;;;1.75;1.75;;;;;7.08;66.34;97334.28;4967859;28;104089;-75
2023/01/15 11:31:10;;;;;;;;;1.00;1.00;;;;;7.01;66.80;97313.81;4962766;28;104068;-76
2023/01/15 11:33:38;;;;;;;;;1.00;1.00;;;;;7.13;66.78;97318.34;4973159;28;102419;-75
2023/01/15 11:36:20;;;;;;;;;3.00;3.00;;;;;7.11;67.39;97309.66;4972949;28;104167;-75
2023/01/15 11:38:49;;;;;;;;;4.00;2.00;;;;;7.20;67.32;97314.81;4970527;28;102378;-76
2023/01/15 11:50:42;;;;;;;;;6.00;3.00;;;;;7.25;68.10;97312.31;4968782;28;102369;-77
2023/01/15 11:52:53;;;;;;;;;2.00;1.75;;;;;7.44;66.77;97285.34;4974652;28;102448;-76
2023/01/15 11:55:25;;;;;;;;;2.00;2.00;;;;;7.44;66.17;97284.53;4967249;28;102123;-75
2023/01/15 11:57:54;;;;;;;;;4.00;3.00;;;;;7.54;66.97;97290.28;4969870;28;104149;-75
2023/01/15 12:00:27;;;;;;;;;2.00;2.00;;;;;7.52;65.96;97271.66;4954967;28;102188;-76
2023/01/15 12:03:05;;;;;;;;;3.00;3.00;;;;;7.62;65.75;97292.72;4969207;28;102183;-76
2023/01/15 12:05:35;;;;;;;;;2.00;2.00;;;;;7.57;63.70;97287.16;4976451;28;102018;-75
2023/01/15 12:08:16;;;;;;;;;3.00;2.25;;;;;7.59;64.05;97293.16;4987179;28;103990;-76
2023/01/15 12:11:15;;;;;;;;;6.00;3.00;;;;;7.58;63.59;97278.03;4952663;28;104397;-75
2023/01/15 12:14:27;;;;;;;;;3.50;2.75;;;;;7.59;62.93;97282.41;4972506;28;102254;-76
2023/01/15 12:17:01;;;;;;;;;4.75;3.00;;;;;7.59;63.87;97277.84;4969877;28;102417;-74
2023/01/15 12:20:04;;;;;;;;;3.00;2.00;;;;;7.60;65.39;97273.28;4959277;28;104038;-75
2023/01/15 12:22:31;;;;;;;;;3.00;3.00;;;;;7.57;65.65;97263.78;4960170;28;102292;-74
2023/01/15 12:25:13;;;;;;;;;1.75;1.75;;;;;7.54;65.44;97260.69;4958015;28;102068;-74
2023/01/15 12:27:51;;;;;;;;;5.50;3.75;;;;;7.52;64.71;97270.84;4973589;28;102146;-75
2023/01/15 12:30:43;;;;;;;;;3.75;3.50;;;;;7.50;65.78;97267.53;4968042;28;108758;-75
2023/01/15 12:33:40;;;;;;;;;7.75;4.00;;;;;7.53;66.04;97270.63;4968237;28;102181;-75
2023/01/15 12:36:16;;;;;;;;;3.75;3.75;;;;;7.51;65.66;97267.34;4961040;28;102817;-75
2023/01/15 12:39:13;;;;;;;;;3.25;3.00;;;;;7.50;67.40;97256.78;4971438;28;102105;-74
2023/01/15 12:45:02;;;;;;;;;3.00;3.00;;;;;7.52;65.69;97265.47;4970795;28;101818;-75
2023/01/15 12:47:36;;;;;;;;;3.25;2.50;;;;;7.53;66.02;97259.03;4950520;28;102328;-74
2023/01/15 12:50:22;;;;;;;;;3.50;3.50;;;;;7.54;66.14;97248.06;4953007;28;101802;-76
2023/01/15 12:52:56;;;;;;;;;2.75;2.25;;;;;7.55;67.71;97236.28;4953578;28;108675;-73
2023/01/15 12:55:29;;;;;;;;;6.00;4.00;;;;;7.49;68.05;97249.75;4965115;27;101843;-74
2023/01/15 12:58:00;;;;;;;;;3.50;3.00;;;;;7.42;68.91;97233.66;4950526;27;102111;-74